sensor_id;sensor_type;location;lat;lon;timestamp;P1;durP1;ratioP1;P2;durP2;ratioP2
18580;SDS011;9420;50.876;7.012;2023-08-06T00:00:07;6.43;;;2.90;;
18580;SDS011;9420;50.876;7.012;2023-08-06T00:02:34;6.80;;;3.33;;
18580;SDS011;9420;50.876;7.012;2023-08-06T00:05:01;5.73;;;3.17;;
18580;SDS011;9420;50.876;7.012;2023-08-06T00:07:28;4.60;;;2.97;;
18580;SDS011;9420;50.876;7.012;2023-08-06T00:09:55;3.23;;;2.53;;
18580;SDS011;9420;50.876;7.012;2023-08-06T00:12:24;4.30;;;3.50;;
18580;SDS011;9420;50.876;7.012;2023-08-06T00:14:52;3.40;;;3.10;;
18580;SDS011;9420;50.876;7.012;2023-08-06T00:17:19;8.20;;;3.83;;
18580;SDS011;9420;50.876;7.012;2023-08-06T00:19:45;4.87;;;3.33;;
18580;SDS011;9420;50.876;7.012;2023-08-06T00:22:12;4.83;;;3.10;;
18580;SDS011;9420;50.876;7.012;2023-08-06T00:24:39;9.00;;;3.63;;
18580;SDS011;9420;50.876;7.012;2023-08-06T00:27:06;6.23;;;3.83;;
18580;SDS011;9420;50.876;7.012;2023-08-06T00:29:34;4.73;;;3.43;;
18580;SDS011;9420;50.876;7.012;2023-08-06T00:32:01;5.97;;;3.87;;
18580;SDS011;9420;50.876;7.012;2023-08-06T00:34:28;5.37;;;3.77;;
18580;SDS011;9420;50.876;7.012;2023-08-06T00:36:55;9.73;;;3.57;;
18580;SDS011;9420;50.876;7.012;2023-08-06T00:39:21;5.10;;;3.40;;
18580;SDS011;9420;50.876;7.012;2023-08-06T00:41:48;4.90;;;3.00;;
18580;SDS011;9420;50.876;7.012;2023-08-06T00:44:15;6.77;;;3.00;;
18580;SDS011;9420;50.876;7.012;2023-08-06T00:46:43;6.07;;;3.33;;
18580;SDS011;9420;50.876;7.012;2023-08-06T00:49:09;5.17;;;3.40;;
18580;SDS011;9420;50.876;7.012;2023-08-06T00:51:36;3.77;;;3.03;;
18580;SDS011;9420;50.876;7.012;2023-08-06T00:54:03;5.17;;;3.40;;
18580;SDS011;9420;50.876;7.012;2023-08-06T00:56:30;6.40;;;3.40;;
18580;SDS011;9420;50.876;7.012;2023-08-06T00:58:58;7.03;;;3.90;;
18580;SDS011;9420;50.876;7.012;2023-08-06T01:01:25;5.93;;;3.67;;
18580;SDS011;9420;50.876;7.012;2023-08-06T01:03:53;6.43;;;3.50;;
18580;SDS011;9420;50.876;7.012;2023-08-06T01:06:23;6.80;;;4.20;;
18580;SDS011;9420;50.876;7.012;2023-08-06T01:09:03;5.83;;;4.03;;
18580;SDS011;9420;50.876;7.012;2023-08-06T01:11:41;6.67;;;4.27;;
18580;SDS011;9420;50.876;7.012;2023-08-06T01:14:15;5.90;;;3.67;;
18580;SDS011;9420;50.876;7.012;2023-08-06T01:16:48;7.33;;;3.87;;
18580;SDS011;9420;50.876;7.012;2023-08-06T01:19:18;5.10;;;3.43;;
18580;SDS011;9420;50.876;7.012;2023-08-06T01:21:46;4.47;;;3.27;;
18580;SDS011;9420;50.876;7.012;2023-08-06T01:24:13;11.00;;;4.60;;
18580;SDS011;9420;50.876;7.012;2023-08-06T01:26:41;5.57;;;3.33;;
18580;SDS011;9420;50.876;7.012;2023-08-06T01:29:15;7.67;;;4.10;;
18580;SDS011;9420;50.876;7.012;2023-08-06T01:31:50;5.07;;;3.70;;
18580;SDS011;9420;50.876;7.012;2023-08-06T01:34:20;4.63;;;3.63;;
18580;SDS011;9420;50.876;7.012;2023-08-06T01:36:49;5.43;;;3.40;;
18580;SDS011;9420;50.876;7.012;2023-08-06T01:39:16;4.67;;;3.77;;
18580;SDS011;9420;50.876;7.012;2023-08-06T01:41:46;6.90;;;3.33;;
18580;SDS011;9420;50.876;7.012;2023-08-06T01:44:12;5.07;;;3.33;;
18580;SDS011;9420;50.876;7.012;2023-08-06T01:46:39;5.10;;;3.20;;
18580;SDS011;9420;50.876;7.012;2023-08-06T01:49:05;5.67;;;3.03;;
18580;SDS011;9420;50.876;7.012;2023-08-06T01:51:32;5.20;;;3.57;;
18580;SDS011;9420;50.876;7.012;2023-08-06T01:54:00;5.53;;;3.17;;
18580;SDS011;9420;50.876;7.012;2023-08-06T01:56:29;6.10;;;3.77;;
18580;SDS011;9420;50.876;7.012;2023-08-06T01:58:55;8.20;;;3.87;;
18580;SDS011;9420;50.876;7.012;2023-08-06T02:01:22;4.47;;;3.13;;
18580;SDS011;9420;50.876;7.012;2023-08-06T02:03:49;6.83;;;3.67;;
18580;SDS011;9420;50.876;7.012;2023-08-06T02:06:15;4.17;;;3.27;;
18580;SDS011;9420;50.876;7.012;2023-08-06T02:08:42;5.03;;;3.23;;
18580;SDS011;9420;50.876;7.012;2023-08-06T02:11:10;4.27;;;3.17;;
18580;SDS011;9420;50.876;7.012;2023-08-06T02:13:37;4.93;;;3.40;;
18580;SDS011;9420;50.876;7.012;2023-08-06T02:16:03;4.10;;;2.97;;
18580;SDS011;9420;50.876;7.012;2023-08-06T02:18:33;3.90;;;3.03;;
18580;SDS011;9420;50.876;7.012;2023-08-06T02:21:00;5.33;;;3.43;;
18580;SDS011;9420;50.876;7.012;2023-08-06T02:23:27;6.50;;;3.27;;
18580;SDS011;9420;50.876;7.012;2023-08-06T02:25:57;7.23;;;3.43;;
18580;SDS011;9420;50.876;7.012;2023-08-06T02:28:26;6.83;;;3.40;;
18580;SDS011;9420;50.876;7.012;2023-08-06T02:30:53;5.40;;;3.40;;
18580;SDS011;9420;50.876;7.012;2023-08-06T02:33:19;5.10;;;3.73;;
18580;SDS011;9420;50.876;7.012;2023-08-06T02:35:46;4.67;;;3.13;;
18580;SDS011;9420;50.876;7.012;2023-08-06T02:38:12;4.90;;;3.13;;
18580;SDS011;9420;50.876;7.012;2023-08-06T02:40:42;5.20;;;3.20;;
18580;SDS011;9420;50.876;7.012;2023-08-06T02:43:09;7.47;;;3.30;;
18580;SDS011;9420;50.876;7.012;2023-08-06T02:45:37;6.80;;;3.07;;
18580;SDS011;9420;50.876;7.012;2023-08-06T02:48:04;4.77;;;2.73;;
18580;SDS011;9420;50.876;7.012;2023-08-06T02:50:38;8.17;;;3.47;;
18580;SDS011;9420;50.876;7.012;2023-08-06T02:53:05;4.43;;;3.33;;
18580;SDS011;9420;50.876;7.012;2023-08-06T02:55:32;7.17;;;2.90;;
18580;SDS011;9420;50.876;7.012;2023-08-06T02:57:59;3.23;;;2.43;;
18580;SDS011;9420;50.876;7.012;2023-08-06T03:00:26;5.23;;;3.30;;
18580;SDS011;9420;50.876;7.012;2023-08-06T03:02:54;5.03;;;2.83;;
18580;SDS011;9420;50.876;7.012;2023-08-06T03:05:21;6.23;;;3.47;;
18580;SDS011;9420;50.876;7.012;2023-08-06T03:07:48;6.23;;;4.23;;
18580;SDS011;9420;50.876;7.012;2023-08-06T03:10:14;4.30;;;2.93;;
18580;SDS011;9420;50.876;7.012;2023-08-06T03:12:41;6.20;;;2.90;;
18580;SDS011;9420;50.876;7.012;2023-08-06T03:15:08;6.77;;;3.67;;
18580;SDS011;9420;50.876;7.012;2023-08-06T03:17:35;5.20;;;3.23;;
18580;SDS011;9420;50.876;7.012;2023-08-06T03:20:04;3.73;;;3.27;;
18580;SDS011;9420;50.876;7.012;2023-08-06T03:22:32;3.50;;;3.20;;
18580;SDS011;9420;50.876;7.012;2023-08-06T03:24:58;6.07;;;3.50;;
18580;SDS011;9420;50.876;7.012;2023-08-06T03:27:25;6.23;;;3.17;;
18580;SDS011;9420;50.876;7.012;2023-08-06T03:29:52;5.90;;;3.43;;
18580;SDS011;9420;50.876;7.012;2023-08-06T03:32:18;5.50;;;3.80;;
18580;SDS011;9420;50.876;7.012;2023-08-06T03:34:45;9.53;;;3.80;;
18580;SDS011;9420;50.876;7.012;2023-08-06T03:37:13;6.87;;;4.40;;
18580;SDS011;9420;50.876;7.012;2023-08-06T03:39:40;6.37;;;3.70;;
18580;SDS011;9420;50.876;7.012;2023-08-06T03:42:06;6.80;;;3.90;;
18580;SDS011;9420;50.876;7.012;2023-08-06T03:44:33;6.10;;;4.57;;
18580;SDS011;9420;50.876;7.012;2023-08-06T03:46:59;4.40;;;3.40;;
18580;SDS011;9420;50.876;7.012;2023-08-06T03:49:26;7.30;;;4.37;;
18580;SDS011;9420;50.876;7.012;2023-08-06T03:51:53;5.30;;;3.73;;
18580;SDS011;9420;50.876;7.012;2023-08-06T03:54:20;7.40;;;3.60;;
18580;SDS011;9420;50.876;7.012;2023-08-06T03:56:47;5.70;;;3.20;;
18580;SDS011;9420;50.876;7.012;2023-08-06T03:59:14;4.40;;;2.87;;
18580;SDS011;9420;50.876;7.012;2023-08-06T04:01:40;5.70;;;3.10;;
18580;SDS011;9420;50.876;7.012;2023-08-06T04:04:07;5.97;;;3.60;;
18580;SDS011;9420;50.876;7.012;2023-08-06T04:06:33;6.90;;;3.47;;
18580;SDS011;9420;50.876;7.012;2023-08-06T04:09:00;4.33;;;3.50;;
18580;SDS011;9420;50.876;7.012;2023-08-06T04:11:29;5.87;;;3.43;;
18580;SDS011;9420;50.876;7.012;2023-08-06T04:13:56;5.60;;;3.17;;
18580;SDS011;9420;50.876;7.012;2023-08-06T04:16:22;7.00;;;3.10;;
18580;SDS011;9420;50.876;7.012;2023-08-06T04:18:51;4.60;;;3.60;;
18580;SDS011;9420;50.876;7.012;2023-08-06T04:21:18;7.77;;;3.43;;
18580;SDS011;9420;50.876;7.012;2023-08-06T04:23:45;5.00;;;3.23;;
18580;SDS011;9420;50.876;7.012;2023-08-06T04:26:12;5.97;;;3.37;;
18580;SDS011;9420;50.876;7.012;2023-08-06T04:28:40;4.80;;;3.67;;
18580;SDS011;9420;50.876;7.012;2023-08-06T04:31:06;5.20;;;3.67;;
18580;SDS011;9420;50.876;7.012;2023-08-06T04:33:33;5.03;;;3.80;;
18580;SDS011;9420;50.876;7.012;2023-08-06T04:36:00;5.30;;;3.97;;
18580;SDS011;9420;50.876;7.012;2023-08-06T04:38:26;6.63;;;4.30;;
18580;SDS011;9420;50.876;7.012;2023-08-06T04:40:53;6.20;;;3.77;;
18580;SDS011;9420;50.876;7.012;2023-08-06T04:43:20;5.77;;;3.77;;
18580;SDS011;9420;50.876;7.012;2023-08-06T04:45:48;8.07;;;3.47;;
18580;SDS011;9420;50.876;7.012;2023-08-06T04:48:15;3.43;;;2.93;;
18580;SDS011;9420;50.876;7.012;2023-08-06T04:50:45;5.03;;;3.80;;
18580;SDS011;9420;50.876;7.012;2023-08-06T04:53:12;6.40;;;3.83;;
18580;SDS011;9420;50.876;7.012;2023-08-06T04:55:39;7.67;;;3.30;;
18580;SDS011;9420;50.876;7.012;2023-08-06T04:58:06;5.83;;;3.60;;
18580;SDS011;9420;50.876;7.012;2023-08-06T05:00:33;3.57;;;3.27;;
18580;SDS011;9420;50.876;7.012;2023-08-06T05:03:01;4.83;;;3.27;;
18580;SDS011;9420;50.876;7.012;2023-08-06T05:05:27;5.07;;;3.47;;
18580;SDS011;9420;50.876;7.012;2023-08-06T05:07:55;8.77;;;4.07;;
18580;SDS011;9420;50.876;7.012;2023-08-06T05:10:24;5.80;;;2.73;;
18580;SDS011;9420;50.876;7.012;2023-08-06T05:12:51;4.73;;;3.60;;
18580;SDS011;9420;50.876;7.012;2023-08-06T05:15:18;5.63;;;3.37;;
18580;SDS011;9420;50.876;7.012;2023-08-06T05:17:44;8.53;;;3.10;;
18580;SDS011;9420;50.876;7.012;2023-08-06T05:20:12;6.03;;;3.43;;
18580;SDS011;9420;50.876;7.012;2023-08-06T05:22:39;5.63;;;3.40;;
18580;SDS011;9420;50.876;7.012;2023-08-06T05:25:06;7.30;;;3.23;;
18580;SDS011;9420;50.876;7.012;2023-08-06T05:27:33;7.43;;;4.40;;
18580;SDS011;9420;50.876;7.012;2023-08-06T05:30:00;8.37;;;3.40;;
18580;SDS011;9420;50.876;7.012;2023-08-06T05:32:27;4.17;;;2.80;;
18580;SDS011;9420;50.876;7.012;2023-08-06T05:34:53;4.07;;;2.80;;
18580;SDS011;9420;50.876;7.012;2023-08-06T05:37:21;5.50;;;3.57;;
18580;SDS011;9420;50.876;7.012;2023-08-06T05:39:48;6.80;;;3.00;;
18580;SDS011;9420;50.876;7.012;2023-08-06T05:42:15;6.37;;;2.90;;
18580;SDS011;9420;50.876;7.012;2023-08-06T05:44:42;5.67;;;2.50;;
18580;SDS011;9420;50.876;7.012;2023-08-06T05:47:09;7.00;;;2.93;;
18580;SDS011;9420;50.876;7.012;2023-08-06T05:49:35;2.90;;;2.27;;
18580;SDS011;9420;50.876;7.012;2023-08-06T05:52:04;5.60;;;2.63;;
18580;SDS011;9420;50.876;7.012;2023-08-06T05:54:34;2.87;;;2.07;;
18580;SDS011;9420;50.876;7.012;2023-08-06T05:57:01;6.93;;;2.43;;
18580;SDS011;9420;50.876;7.012;2023-08-06T05:59:28;6.37;;;2.53;;
18580;SDS011;9420;50.876;7.012;2023-08-06T06:01:55;3.93;;;2.47;;
18580;SDS011;9420;50.876;7.012;2023-08-06T06:04:22;4.37;;;2.20;;
18580;SDS011;9420;50.876;7.012;2023-08-06T06:06:48;4.30;;;2.30;;
18580;SDS011;9420;50.876;7.012;2023-08-06T06:09:15;6.17;;;2.43;;
18580;SDS011;9420;50.876;7.012;2023-08-06T06:11:43;4.83;;;2.47;;
18580;SDS011;9420;50.876;7.012;2023-08-06T06:14:10;11.27;;;2.67;;
18580;SDS011;9420;50.876;7.012;2023-08-06T06:16:36;2.67;;;2.13;;
18580;SDS011;9420;50.876;7.012;2023-08-06T06:19:03;4.03;;;2.73;;
18580;SDS011;9420;50.876;7.012;2023-08-06T06:21:29;6.30;;;2.57;;
18580;SDS011;9420;50.876;7.012;2023-08-06T06:23:56;2.53;;;2.00;;
18580;SDS011;9420;50.876;7.012;2023-08-06T06:26:23;5.50;;;1.97;;
18580;SDS011;9420;50.876;7.012;2023-08-06T06:28:51;3.57;;;1.67;;
18580;SDS011;9420;50.876;7.012;2023-08-06T06:31:17;2.23;;;1.17;;
18580;SDS011;9420;50.876;7.012;2023-08-06T06:33:44;1.33;;;0.90;;
18580;SDS011;9420;50.876;7.012;2023-08-06T06:36:11;2.20;;;1.20;;
18580;SDS011;9420;50.876;7.012;2023-08-06T06:38:37;0.80;;;0.80;;
18580;SDS011;9420;50.876;7.012;2023-08-06T06:41:04;1.97;;;1.40;;
18580;SDS011;9420;50.876;7.012;2023-08-06T06:43:31;1.30;;;1.00;;
18580;SDS011;9420;50.876;7.012;2023-08-06T06:45:59;1.57;;;1.20;;
18580;SDS011;9420;50.876;7.012;2023-08-06T06:48:26;2.50;;;1.47;;
18580;SDS011;9420;50.876;7.012;2023-08-06T06:50:54;2.53;;;1.40;;
18580;SDS011;9420;50.876;7.012;2023-08-06T06:53:20;2.60;;;1.60;;
18580;SDS011;9420;50.876;7.012;2023-08-06T06:55:52;2.27;;;1.70;;
18580;SDS011;9420;50.876;7.012;2023-08-06T06:58:18;3.07;;;1.50;;
18580;SDS011;9420;50.876;7.012;2023-08-06T07:00:45;1.60;;;1.33;;
18580;SDS011;9420;50.876;7.012;2023-08-06T07:03:13;1.50;;;1.27;;
18580;SDS011;9420;50.876;7.012;2023-08-06T07:05:40;2.70;;;2.30;;
18580;SDS011;9420;50.876;7.012;2023-08-06T07:08:06;3.00;;;2.07;;
18580;SDS011;9420;50.876;7.012;2023-08-06T07:10:33;8.13;;;2.97;;
18580;SDS011;9420;50.876;7.012;2023-08-06T07:13:00;4.60;;;3.47;;
18580;SDS011;9420;50.876;7.012;2023-08-06T07:15:26;7.40;;;3.23;;
18580;SDS011;9420;50.876;7.012;2023-08-06T07:17:53;3.13;;;2.57;;
18580;SDS011;9420;50.876;7.012;2023-08-06T07:20:21;3.50;;;2.53;;
18580;SDS011;9420;50.876;7.012;2023-08-06T07:22:47;4.30;;;2.57;;
18580;SDS011;9420;50.876;7.012;2023-08-06T07:25:15;2.97;;;2.10;;
18580;SDS011;9420;50.876;7.012;2023-08-06T07:27:42;3.23;;;2.10;;
18580;SDS011;9420;50.876;7.012;2023-08-06T07:30:09;3.83;;;2.10;;
18580;SDS011;9420;50.876;7.012;2023-08-06T07:32:36;5.37;;;2.60;;
18580;SDS011;9420;50.876;7.012;2023-08-06T07:35:03;3.43;;;2.60;;
18580;SDS011;9420;50.876;7.012;2023-08-06T07:37:32;5.77;;;2.63;;
18580;SDS011;9420;50.876;7.012;2023-08-06T07:39:58;4.03;;;2.77;;
18580;SDS011;9420;50.876;7.012;2023-08-06T07:42:25;4.00;;;2.57;;
18580;SDS011;9420;50.876;7.012;2023-08-06T07:44:52;5.17;;;2.50;;
18580;SDS011;9420;50.876;7.012;2023-08-06T07:47:18;6.80;;;2.47;;
18580;SDS011;9420;50.876;7.012;2023-08-06T07:49:45;3.93;;;2.90;;
18580;SDS011;9420;50.876;7.012;2023-08-06T07:52:12;6.93;;;2.80;;
18580;SDS011;9420;50.876;7.012;2023-08-06T07:54:40;3.37;;;2.20;;
18580;SDS011;9420;50.876;7.012;2023-08-06T07:57:06;5.27;;;3.37;;
18580;SDS011;9420;50.876;7.012;2023-08-06T07:59:33;3.13;;;2.67;;
18580;SDS011;9420;50.876;7.012;2023-08-06T08:01:59;6.27;;;3.77;;
18580;SDS011;9420;50.876;7.012;2023-08-06T08:04:26;5.67;;;3.27;;
18580;SDS011;9420;50.876;7.012;2023-08-06T08:06:53;4.50;;;3.03;;
18580;SDS011;9420;50.876;7.012;2023-08-06T08:09:20;6.07;;;3.30;;
18580;SDS011;9420;50.876;7.012;2023-08-06T08:11:48;3.47;;;2.93;;
18580;SDS011;9420;50.876;7.012;2023-08-06T08:14:15;5.13;;;3.80;;
18580;SDS011;9420;50.876;7.012;2023-08-06T08:16:42;6.80;;;2.53;;
18580;SDS011;9420;50.876;7.012;2023-08-06T08:19:08;6.80;;;2.93;;
18580;SDS011;9420;50.876;7.012;2023-08-06T08:21:35;5.90;;;3.57;;
18580;SDS011;9420;50.876;7.012;2023-08-06T08:24:03;5.90;;;3.57;;
18580;SDS011;9420;50.876;7.012;2023-08-06T08:26:30;6.97;;;4.07;;
18580;SDS011;9420;50.876;7.012;2023-08-06T08:28:58;6.97;;;3.90;;
18580;SDS011;9420;50.876;7.012;2023-08-06T08:31:25;6.30;;;3.67;;
18580;SDS011;9420;50.876;7.012;2023-08-06T08:33:51;6.67;;;4.60;;
18580;SDS011;9420;50.876;7.012;2023-08-06T08:36:18;5.47;;;4.27;;
18580;SDS011;9420;50.876;7.012;2023-08-06T08:38:45;5.80;;;3.57;;
18580;SDS011;9420;50.876;7.012;2023-08-06T08:41:11;6.73;;;4.40;;
18580;SDS011;9420;50.876;7.012;2023-08-06T08:43:38;4.67;;;4.17;;
18580;SDS011;9420;50.876;7.012;2023-08-06T08:46:07;5.50;;;4.00;;
18580;SDS011;9420;50.876;7.012;2023-08-06T08:48:36;6.80;;;4.47;;
18580;SDS011;9420;50.876;7.012;2023-08-06T08:51:03;5.80;;;3.37;;
18580;SDS011;9420;50.876;7.012;2023-08-06T08:53:32;4.30;;;2.47;;
18580;SDS011;9420;50.876;7.012;2023-08-06T08:55:59;4.23;;;2.00;;
18580;SDS011;9420;50.876;7.012;2023-08-06T08:58:26;5.17;;;2.70;;
18580;SDS011;9420;50.876;7.012;2023-08-06T09:00:53;5.30;;;3.17;;
18580;SDS011;9420;50.876;7.012;2023-08-06T09:03:21;3.93;;;2.50;;
18580;SDS011;9420;50.876;7.012;2023-08-06T09:05:49;3.40;;;1.77;;
18580;SDS011;9420;50.876;7.012;2023-08-06T09:08:21;8.17;;;1.90;;
18580;SDS011;9420;50.876;7.012;2023-08-06T09:10:53;3.77;;;2.20;;
18580;SDS011;9420;50.876;7.012;2023-08-06T09:13:20;3.70;;;2.27;;
18580;SDS011;9420;50.876;7.012;2023-08-06T09:15:48;3.70;;;1.90;;
18580;SDS011;9420;50.876;7.012;2023-08-06T09:18:24;1.97;;;1.43;;
18580;SDS011;9420;50.876;7.012;2023-08-06T09:20:53;2.10;;;1.83;;
18580;SDS011;9420;50.876;7.012;2023-08-06T09:23:20;2.67;;;1.83;;
18580;SDS011;9420;50.876;7.012;2023-08-06T09:25:53;4.27;;;1.90;;
18580;SDS011;9420;50.876;7.012;2023-08-06T09:28:21;2.30;;;1.47;;
18580;SDS011;9420;50.876;7.012;2023-08-06T09:30:49;2.30;;;1.70;;
18580;SDS011;9420;50.876;7.012;2023-08-06T09:33:17;1.40;;;1.30;;
18580;SDS011;9420;50.876;7.012;2023-08-06T09:35:46;1.40;;;1.30;;
18580;SDS011;9420;50.876;7.012;2023-08-06T09:38:13;0.80;;;0.77;;
18580;SDS011;9420;50.876;7.012;2023-08-06T09:40:39;1.23;;;0.80;;
18580;SDS011;9420;50.876;7.012;2023-08-06T09:43:06;1.73;;;1.03;;
18580;SDS011;9420;50.876;7.012;2023-08-06T09:45:34;1.60;;;1.23;;
18580;SDS011;9420;50.876;7.012;2023-08-06T09:48:00;3.10;;;1.90;;
18580;SDS011;9420;50.876;7.012;2023-08-06T09:50:30;1.73;;;1.50;;
18580;SDS011;9420;50.876;7.012;2023-08-06T09:53:02;2.50;;;1.47;;
18580;SDS011;9420;50.876;7.012;2023-08-06T09:55:30;1.83;;;1.73;;
18580;SDS011;9420;50.876;7.012;2023-08-06T09:57:58;2.27;;;2.00;;
18580;SDS011;9420;50.876;7.012;2023-08-06T10:00:28;2.60;;;2.40;;
18580;SDS011;9420;50.876;7.012;2023-08-06T10:02:58;5.57;;;3.93;;
18580;SDS011;9420;50.876;7.012;2023-08-06T10:05:26;2.90;;;2.70;;
18580;SDS011;9420;50.876;7.012;2023-08-06T10:07:53;3.80;;;3.03;;
18580;SDS011;9420;50.876;7.012;2023-08-06T10:10:22;4.80;;;3.03;;
18580;SDS011;9420;50.876;7.012;2023-08-06T10:12:52;4.00;;;3.57;;
18580;SDS011;9420;50.876;7.012;2023-08-06T10:15:22;4.43;;;3.13;;
18580;SDS011;9420;50.876;7.012;2023-08-06T10:17:53;3.70;;;3.40;;
18580;SDS011;9420;50.876;7.012;2023-08-06T10:20:23;2.63;;;2.43;;
18580;SDS011;9420;50.876;7.012;2023-08-06T10:22:59;1.80;;;1.20;;
18580;SDS011;9420;50.876;7.012;2023-08-06T10:25:31;1.53;;;1.00;;
18580;SDS011;9420;50.876;7.012;2023-08-06T10:27:59;1.00;;;0.70;;
18580;SDS011;9420;50.876;7.012;2023-08-06T10:30:26;0.70;;;0.50;;
18580;SDS011;9420;50.876;7.012;2023-08-06T10:32:55;0.90;;;0.63;;
18580;SDS011;9420;50.876;7.012;2023-08-06T10:35:28;0.80;;;0.60;;
18580;SDS011;9420;50.876;7.012;2023-08-06T10:38:00;2.77;;;1.03;;
18580;SDS011;9420;50.876;7.012;2023-08-06T10:40:31;2.23;;;0.97;;
18580;SDS011;9420;50.876;7.012;2023-08-06T10:42:58;4.70;;;1.00;;
18580;SDS011;9420;50.876;7.012;2023-08-06T10:45:26;1.90;;;1.50;;
18580;SDS011;9420;50.876;7.012;2023-08-06T10:47:54;2.33;;;1.57;;
18580;SDS011;9420;50.876;7.012;2023-08-06T10:50:21;3.20;;;1.47;;
18580;SDS011;9420;50.876;7.012;2023-08-06T10:52:48;2.73;;;1.50;;
18580;SDS011;9420;50.876;7.012;2023-08-06T10:55:21;3.57;;;1.80;;
18580;SDS011;9420;50.876;7.012;2023-08-06T10:57:50;4.83;;;2.03;;
18580;SDS011;9420;50.876;7.012;2023-08-06T11:00:17;3.80;;;2.00;;
18580;SDS011;9420;50.876;7.012;2023-08-06T11:02:44;3.57;;;1.40;;
18580;SDS011;9420;50.876;7.012;2023-08-06T11:05:13;3.53;;;1.83;;
18580;SDS011;9420;50.876;7.012;2023-08-06T11:07:40;3.30;;;1.70;;
18580;SDS011;9420;50.876;7.012;2023-08-06T11:10:08;1.83;;;1.73;;
18580;SDS011;9420;50.876;7.012;2023-08-06T11:12:35;3.73;;;2.10;;
18580;SDS011;9420;50.876;7.012;2023-08-06T11:15:04;5.20;;;2.07;;
18580;SDS011;9420;50.876;7.012;2023-08-06T11:17:32;2.93;;;2.20;;
18580;SDS011;9420;50.876;7.012;2023-08-06T11:19:59;4.73;;;1.70;;
18580;SDS011;9420;50.876;7.012;2023-08-06T11:22:27;5.70;;;2.10;;
18580;SDS011;9420;50.876;7.012;2023-08-06T11:24:53;3.53;;;1.93;;
18580;SDS011;9420;50.876;7.012;2023-08-06T11:27:20;5.50;;;2.30;;
18580;SDS011;9420;50.876;7.012;2023-08-06T11:29:47;4.53;;;2.03;;
18580;SDS011;9420;50.876;7.012;2023-08-06T11:32:15;4.93;;;1.83;;
18580;SDS011;9420;50.876;7.012;2023-08-06T11:34:42;5.83;;;2.37;;
18580;SDS011;9420;50.876;7.012;2023-08-06T11:37:09;8.07;;;1.93;;
18580;SDS011;9420;50.876;7.012;2023-08-06T11:39:36;2.93;;;1.67;;
18580;SDS011;9420;50.876;7.012;2023-08-06T11:42:04;4.93;;;1.80;;
18580;SDS011;9420;50.876;7.012;2023-08-06T11:44:33;4.60;;;2.07;;
18580;SDS011;9420;50.876;7.012;2023-08-06T11:47:02;2.13;;;1.70;;
18580;SDS011;9420;50.876;7.012;2023-08-06T11:49:38;3.23;;;1.47;;
18580;SDS011;9420;50.876;7.012;2023-08-06T11:52:07;3.90;;;1.40;;
18580;SDS011;9420;50.876;7.012;2023-08-06T11:54:36;5.23;;;1.63;;
18580;SDS011;9420;50.876;7.012;2023-08-06T11:57:03;5.73;;;1.77;;
18580;SDS011;9420;50.876;7.012;2023-08-06T11:59:31;6.37;;;1.77;;
18580;SDS011;9420;50.876;7.012;2023-08-06T12:01:59;2.13;;;1.17;;
18580;SDS011;9420;50.876;7.012;2023-08-06T12:04:26;2.33;;;0.93;;
18580;SDS011;9420;50.876;7.012;2023-08-06T12:06:55;3.00;;;1.33;;
18580;SDS011;9420;50.876;7.012;2023-08-06T12:09:31;4.60;;;1.07;;
18580;SDS011;9420;50.876;7.012;2023-08-06T12:11:58;3.20;;;1.37;;
18580;SDS011;9420;50.876;7.012;2023-08-06T12:14:25;2.30;;;0.90;;
18580;SDS011;9420;50.876;7.012;2023-08-06T12:16:51;4.40;;;1.20;;
18580;SDS011;9420;50.876;7.012;2023-08-06T12:19:18;3.70;;;1.37;;
18580;SDS011;9420;50.876;7.012;2023-08-06T12:21:44;3.27;;;1.00;;
18580;SDS011;9420;50.876;7.012;2023-08-06T12:24:13;3.13;;;1.57;;
18580;SDS011;9420;50.876;7.012;2023-08-06T12:26:39;1.23;;;1.00;;
18580;SDS011;9420;50.876;7.012;2023-08-06T12:29:06;2.33;;;1.00;;
18580;SDS011;9420;50.876;7.012;2023-08-06T12:31:33;2.87;;;1.00;;
18580;SDS011;9420;50.876;7.012;2023-08-06T12:33:59;3.07;;;1.27;;
18580;SDS011;9420;50.876;7.012;2023-08-06T12:36:26;3.87;;;1.00;;
18580;SDS011;9420;50.876;7.012;2023-08-06T12:38:52;5.30;;;1.00;;
18580;SDS011;9420;50.876;7.012;2023-08-06T12:41:20;2.80;;;1.30;;
18580;SDS011;9420;50.876;7.012;2023-08-06T12:43:47;3.20;;;1.10;;
18580;SDS011;9420;50.876;7.012;2023-08-06T12:46:13;3.27;;;0.80;;
18580;SDS011;9420;50.876;7.012;2023-08-06T12:48:40;4.23;;;1.00;;
18580;SDS011;9420;50.876;7.012;2023-08-06T12:51:06;5.37;;;1.17;;
18580;SDS011;9420;50.876;7.012;2023-08-06T12:53:33;1.80;;;0.80;;
18580;SDS011;9420;50.876;7.012;2023-08-06T12:56:00;3.80;;;1.20;;
18580;SDS011;9420;50.876;7.012;2023-08-06T12:58:28;5.50;;;1.40;;
18580;SDS011;9420;50.876;7.012;2023-08-06T13:00:54;8.83;;;1.33;;
18580;SDS011;9420;50.876;7.012;2023-08-06T13:03:22;3.73;;;1.50;;
18580;SDS011;9420;50.876;7.012;2023-08-06T13:05:48;5.53;;;1.80;;
18580;SDS011;9420;50.876;7.012;2023-08-06T13:08:15;3.63;;;1.27;;
18580;SDS011;9420;50.876;7.012;2023-08-06T13:10:43;2.43;;;1.50;;
18580;SDS011;9420;50.876;7.012;2023-08-06T13:13:10;5.90;;;1.70;;
18580;SDS011;9420;50.876;7.012;2023-08-06T13:15:38;4.07;;;1.90;;
18580;SDS011;9420;50.876;7.012;2023-08-06T13:18:04;5.30;;;2.00;;
18580;SDS011;9420;50.876;7.012;2023-08-06T13:20:31;6.40;;;2.13;;
18580;SDS011;9420;50.876;7.012;2023-08-06T13:22:58;5.07;;;2.00;;
18580;SDS011;9420;50.876;7.012;2023-08-06T13:25:26;8.87;;;2.47;;
18580;SDS011;9420;50.876;7.012;2023-08-06T13:27:53;3.27;;;2.00;;
18580;SDS011;9420;50.876;7.012;2023-08-06T13:30:20;3.27;;;2.07;;
18580;SDS011;9420;50.876;7.012;2023-08-06T13:32:49;5.17;;;2.00;;
18580;SDS011;9420;50.876;7.012;2023-08-06T13:35:16;5.90;;;2.10;;
18580;SDS011;9420;50.876;7.012;2023-08-06T13:37:42;7.93;;;2.27;;
18580;SDS011;9420;50.876;7.012;2023-08-06T13:40:09;5.50;;;1.97;;
18580;SDS011;9420;50.876;7.012;2023-08-06T13:42:36;4.50;;;2.43;;
18580;SDS011;9420;50.876;7.012;2023-08-06T13:45:03;10.00;;;3.00;;
18580;SDS011;9420;50.876;7.012;2023-08-06T13:47:30;6.93;;;2.70;;
18580;SDS011;9420;50.876;7.012;2023-08-06T13:49:58;5.43;;;2.27;;
18580;SDS011;9420;50.876;7.012;2023-08-06T13:52:28;7.03;;;3.00;;
18580;SDS011;9420;50.876;7.012;2023-08-06T13:54:55;6.40;;;3.03;;
18580;SDS011;9420;50.876;7.012;2023-08-06T13:57:21;6.00;;;3.00;;
18580;SDS011;9420;50.876;7.012;2023-08-06T13:59:48;4.77;;;3.40;;
18580;SDS011;9420;50.876;7.012;2023-08-06T14:02:15;5.83;;;3.40;;
18580;SDS011;9420;50.876;7.012;2023-08-06T14:04:41;11.10;;;3.13;;
18580;SDS011;9420;50.876;7.012;2023-08-06T14:07:09;4.93;;;3.43;;
18580;SDS011;9420;50.876;7.012;2023-08-06T14:09:36;4.53;;;2.50;;
18580;SDS011;9420;50.876;7.012;2023-08-06T14:12:02;8.00;;;2.97;;
18580;SDS011;9420;50.876;7.012;2023-08-06T14:14:30;9.03;;;2.83;;
18580;SDS011;9420;50.876;7.012;2023-08-06T14:16:57;3.30;;;1.90;;
18580;SDS011;9420;50.876;7.012;2023-08-06T14:19:23;9.73;;;1.70;;
18580;SDS011;9420;50.876;7.012;2023-08-06T14:21:50;5.07;;;2.10;;
18580;SDS011;9420;50.876;7.012;2023-08-06T14:24:18;4.43;;;1.43;;
18580;SDS011;9420;50.876;7.012;2023-08-06T14:26:45;3.60;;;1.50;;
18580;SDS011;9420;50.876;7.012;2023-08-06T14:29:12;4.90;;;1.60;;
18580;SDS011;9420;50.876;7.012;2023-08-06T14:31:39;7.27;;;1.87;;
18580;SDS011;9420;50.876;7.012;2023-08-06T14:34:06;6.70;;;2.10;;
18580;SDS011;9420;50.876;7.012;2023-08-06T14:36:33;9.10;;;2.10;;
18580;SDS011;9420;50.876;7.012;2023-08-06T14:38:59;7.77;;;2.30;;
18580;SDS011;9420;50.876;7.012;2023-08-06T14:41:27;5.50;;;1.43;;
18580;SDS011;9420;50.876;7.012;2023-08-06T14:43:54;4.33;;;1.60;;
18580;SDS011;9420;50.876;7.012;2023-08-06T14:46:21;3.90;;;1.10;;
18580;SDS011;9420;50.876;7.012;2023-08-06T14:48:47;4.37;;;1.17;;
18580;SDS011;9420;50.876;7.012;2023-08-06T14:51:15;4.23;;;1.50;;
18580;SDS011;9420;50.876;7.012;2023-08-06T14:53:44;4.17;;;1.40;;
18580;SDS011;9420;50.876;7.012;2023-08-06T14:56:10;3.73;;;0.97;;
18580;SDS011;9420;50.876;7.012;2023-08-06T14:58:38;2.60;;;0.67;;
18580;SDS011;9420;50.876;7.012;2023-08-06T15:01:05;2.37;;;0.60;;